Cheikh El Mokrani — C6WD5 — position and weather

sailwx.info

Track history (hours):
 
Tides and Currents Weather Stations Pressure Air Temp Water Temp Dewpoint Dewpoint Depression Visibility Wind Speed Wind Dir Waves Ship Positions

Cheikh El Mokrani

Last reported at 2017-Jun-30 00:16 UTC. Time now 2017-Jul-25 18:43 UTC.
Position N 39°30' W 009°57'.
Warning: this ship's position is 25 days out of date.

Length 220 m; draft 7.9 m.

Type: Ship (hazmat cat D). MMSI: 309979000.

Date/timePositionNaut miles runAvg speedWind from/ knotsBaromVisibWave heightAir tempDewpointWater temp
2017-Jun-30 00:16N 39°30' W 009°57'4 5.4
2017-Jun-29 23:31N 39°25' W 009°57'0 6.0
2017-Jun-29 23:29N 39°25' W 009°57'3 5.6
2017-Jun-29 23:00N 39°23' W 009°57'3 6.0
2017-Jun-29 22:30N 39°20' W 009°57'3 5.8
2017-Jun-29 22:00N 39°17' W 009°57'3 5.9
2017-Jun-29 21:30N 39°14' W 009°57'3 6.5
2017-Jun-29 21:00N 39°11' W 009°57'4 7.0
2017-Jun-29 20:30N 39°07' W 009°57'4 7.0
2017-Jun-29 20:00N 39°03' W 009°57'4 7.1
2017-Jun-29 19:30N 38°60' W 009°57'3 6.8
2017-Jun-29 19:00N 38°57' W 009°57'3 6.5
2017-Jun-29 18:30N 38°53' W 009°57'4 7.2
2017-Jun-29 18:00N 38°50' W 009°57'4 7.1
2017-Jun-29 17:30N 38°46' W 009°57'4 7.7
2017-Jun-29 17:00N 38°42' W 009°57'4 7.7
2017-Jun-29 16:30N 38°39' W 009°56'4 7.3
2017-Jun-29 16:00N 38°35' W 009°53'4 7.5
2017-Jun-29 15:30N 38°33' W 009°50'4 7.7
2017-Jun-29 15:00N 38°30' W 009°46'8 7.6
2017-Jun-29 14:00N 38°25' W 009°39'4 7.5
2017-Jun-29 13:30N 38°22' W 009°36'4 7.6
2017-Jun-29 13:00N 38°19' W 009°33'4 7.5
2017-Jun-29 12:30N 38°17' W 009°29'4 7.4
2017-Jun-29 12:00N 38°15' W 009°25'4 7.8
2017-Jun-29 11:30N 38°12' W 009°21'4 7.6
2017-Jun-29 11:00N 38°10' W 009°18'4 8.0
2017-Jun-29 10:30N 38°07' W 009°14'4 8.3
2017-Jun-29 10:00N 38°04' W 009°10'1 2.5
2017-Jun-29 09:30N 38°03' W 009°10'5 9.1
2017-Jun-29 09:00N 38°06' W 009°15'4 9.0
2017-Jun-29 08:30N 38°08' W 009°20'4 9.0
2017-Jun-29 08:00N 38°11' W 009°24'4 8.9
2017-Jun-29 07:30N 38°13' W 009°29'4 8.9
2017-Jun-29 07:00N 38°15' W 009°34'5 9.1
2017-Jun-29 06:30N 38°18' W 009°39'5 9.1
2017-Jun-29 06:00N 38°20' W 009°44'5 9.2
2017-Jun-29 05:30N 38°23' W 009°49'5 9.3
2017-Jun-29 05:00N 38°25' W 009°54'5 9.2
2017-Jun-29 04:30N 38°28' W 009°58'5 9.3
2017-Jun-29 04:00N 38°30' W 010°03'5 9.8
2017-Jun-29 03:30N 38°33' W 010°09'5 9.7
2017-Jun-29 03:00N 38°38' W 010°11'5 9.6
2017-Jun-29 02:30N 38°43' W 010°12'5 9.0
2017-Jun-29 02:00N 38°47' W 010°12'4 8.4
2017-Jun-29 01:30N 38°51' W 010°12'4 8.3
2017-Jun-29 01:00N 38°55' W 010°10'4 8.7
2017-Jun-29 00:30N 38°59' W 010°09'5 9.5
2017-Jun-29 00:00N 39°04' W 010°08'4 7.4
2017-Jun-28 23:30N 39°07' W 010°05'3 6.7
2017-Jun-28 23:00N 39°06' W 010°01'3 7.0
2017-Jun-28 22:30N 39°05' W 009°57'3 7.0
2017-Jun-28 22:00N 39°01' W 009°57'4 7.5
2017-Jun-28 21:30N 38°57' W 009°57'4 7.5
2017-Jun-28 21:00N 38°54' W 009°57'4 7.4
2017-Jun-28 20:30N 38°50' W 009°57'4 7.4
2017-Jun-28 20:00N 38°46' W 009°57'4 7.5
2017-Jun-28 19:30N 38°43' W 009°57'4 8.1
2017-Jun-28 19:01N 38°39' W 009°56'4 8.2
2017-Jun-28 18:30N 38°35' W 009°53'4 8.6
2017-Jun-28 18:00N 38°32' W 009°49'4 8.8
2017-Jun-28 17:30N 38°29' W 009°45'4 8.5
2017-Jun-28 17:00N 38°26' W 009°41'4 8.4
2017-Jun-28 16:30N 38°24' W 009°37'4 8.6
2017-Jun-28 16:00N 38°21' W 009°33'4 8.8
2017-Jun-28 15:30N 38°18' W 009°28'5 9.0
2017-Jun-28 15:00N 38°15' W 009°24'9 9.1
2017-Jun-28 14:00N 38°09' W 009°15'4 7.9
2017-Jun-28 13:30N 38°07' W 009°11'5 9.3
2017-Jun-28 13:00N 38°04' W 009°07'510.4
2017-Jun-28 12:30N 38°00' W 009°02'510.9
2017-Jun-28 12:00N 37°57' W 008°57'4 6.6
2017-Jun-28 11:28N 37°57' W 008°52'1 1.4
2017-Jun-28 10:59N 37°56' W 008°51'0 0.0
2017-Jun-28 10:29N 37°56' W 008°51'0 0.0
2017-Jun-28 09:59N 37°56' W 008°51'0 0.0
2017-Jun-28 09:29N 37°56' W 008°51'0 0.0
2017-Jun-28 08:59N 37°56' W 008°51'0 0.0
2017-Jun-28 08:26N 37°56' W 008°51'0 0.0
2017-Jun-28 07:59N 37°56' W 008°51'0 0.0
2017-Jun-28 07:29N 37°56' W 008°51'0 0.0
2017-Jun-28 06:59N 37°56' W 008°51'0 0.0
2017-Jun-28 06:29N 37°56' W 008°51'0 0.0
2017-Jun-28 05:59N 37°56' W 008°51'0 0.0
2017-Jun-28 05:29N 37°56' W 008°51'0 0.0
2017-Jun-28 04:59N 37°56' W 008°51'0 0.0
2017-Jun-28 04:29N 37°56' W 008°51'0 0.0
2017-Jun-28 03:59N 37°56' W 008°51'0 0.0
2017-Jun-28 03:29N 37°56' W 008°51'0 0.0
2017-Jun-28 02:59N 37°56' W 008°51'0 0.0
2017-Jun-28 02:29N 37°56' W 008°51'0 0.0
2017-Jun-28 01:59N 37°56' W 008°51'0 0.0
2017-Jun-28 01:29N 37°56' W 008°51'0 0.0
2017-Jun-28 00:59N 37°56' W 008°51'0 0.0
2017-Jun-28 00:26N 37°56' W 008°51'0 0.0
2017-Jun-27 23:59N 37°56' W 008°51'0 0.0
2017-Jun-27 23:29N 37°56' W 008°51'0 0.0
2017-Jun-27 22:59N 37°56' W 008°51'0 0.0
2017-Jun-27 22:29N 37°56' W 008°51'0 0.0
2017-Jun-27 21:59N 37°56' W 008°51'0 0.0
2017-Jun-27 21:29N 37°56' W 008°51'0 0.0
2017-Jun-27 20:59N 37°56' W 008°51'0 0.0
2017-Jun-27 20:29N 37°56' W 008°51'0 0.0
2017-Jun-27 19:59N 37°56' W 008°51'0 0.0
2017-Jun-27 19:29N 37°56' W 008°51'0 0.0
2017-Jun-27 18:59N 37°56' W 008°51'0 0.0
2017-Jun-27 18:29N 37°56' W 008°51'0 0.0
2017-Jun-27 17:59N 37°56' W 008°51'0 0.0
2017-Jun-27 17:29N 37°56' W 008°51'0 0.0
2017-Jun-27 16:59N 37°56' W 008°51'0 0.0
2017-Jun-27 16:29N 37°56' W 008°51'0 0.0
2017-Jun-27 15:59N 37°56' W 008°51'0 0.0
2017-Jun-27 15:29N 37°56' W 008°51'0 0.0
2017-Jun-27 14:59N 37°56' W 008°51'0 0.0
2017-Jun-27 14:29N 37°56' W 008°51'0 0.0
2017-Jun-27 13:29N 37°56' W 008°51'0 0.0
2017-Jun-27 12:59N 37°56' W 008°51'0 0.0
2017-Jun-27 12:29N 37°56' W 008°51'0 0.0
2017-Jun-27 11:59N 37°56' W 008°51'0 0.0
2017-Jun-27 11:29N 37°56' W 008°51'0 0.0
2017-Jun-27 10:59N 37°56' W 008°51'0 0.2
2017-Jun-27 10:30N 37°56' W 008°52'1 1.6
2017-Jun-27 10:00N 37°56' W 008°52'2 4.0
2017-Jun-27 09:30N 37°54' W 008°53'1 1.3
2017-Jun-27 09:00N 37°53' W 008°54'2 3.9
2017-Jun-27 08:30N 37°52' W 008°55'4 8.2
2017-Jun-27 08:00N 37°48' W 008°57'4 8.6
2017-Jun-27 07:30N 37°44' W 008°60'4 8.1
2017-Jun-27 07:00N 37°41' W 009°02'1 1.5
2017-Jun-27 06:30N 37°40' W 009°02'0 0.8
2017-Jun-27 06:00N 37°40' W 009°03'0 0.6
2017-Jun-27 05:30N 37°40' W 009°03'4 8.8
2017-Jun-27 05:00N 37°36' W 009°05'713.6
2017-Jun-27 04:30N 37°30' W 009°09'913.1
2017-Jun-27 03:51N 37°22' W 009°13'3611.8
2017-Jun-27 00:47N 36°46' W 009°18'613.0
2017-Jun-27 00:21N 36°42' W 009°14'612.7
2017-Jun-26 23:55N 36°40' W 009°08'612.5
2017-Jun-26 23:28N 36°38' W 009°01'612.5
2017-Jun-26 22:59N 36°36' W 008°54'812.6
2017-Jun-26 22:23N 36°33' W 008°45'812.3
2017-Jun-26 21:46N 36°31' W 008°36'312.1
2017-Jun-26 21:29N 36°29' W 008°32'2012.3
2017-Jun-26 19:54N 36°23' W 008°09'612.5
2017-Jun-26 19:23N 36°21' W 008°01'512.7
2017-Jun-26 18:59N 36°20' W 007°55'613.0
2017-Jun-26 18:30N 36°18' W 007°48'713.4
2017-Jun-26 18:00N 36°16' W 007°40'713.4
2017-Jun-26 17:30N 36°15' W 007°32'713.5
2017-Jun-26 17:00N 36°13' W 007°24'714.2
2017-Jun-26 16:30N 36°12' W 007°15'1114.8
2017-Jun-26 15:46N 36°10' W 007°02'2310.2
2017-Jun-26 13:30N 36°14' W 007°30'4 8.2
2017-Jun-26 13:00N 36°13' W 007°25'1414.0
2017-Jun-26 12:02N 36°09' W 007°09'313.7
2017-Jun-26 11:50N 36°09' W 007°06'2613.7
2017-Jun-26 09:56N 36°02' W 006°35'4811.9
2017-Jun-26 05:55N 35°58' W 005°36'511.6
2017-Jun-26 05:30N 35°59' W 005°30'611.2
2017-Jun-26 05:00N 36°01' W 005°24'612.6
2017-Jun-26 04:30N 36°03' W 005°16'612.4
2017-Jun-26 04:00N 36°03' W 005°09'612.7
2017-Jun-26 03:30N 36°04' W 005°01'10913.6
2017-Jun-25 19:28N 36°11' W 002°46'714.5
2017-Jun-25 19:00N 36°12' W 002°38'714.6
2017-Jun-25 18:30N 36°13' W 002°29'714.0
2017-Jun-25 18:00N 36°14' W 002°20'713.6
2017-Jun-25 17:30N 36°14' W 002°12'813.4
2017-Jun-25 16:55N 36°16' W 002°02'613.7
2017-Jun-25 16:30N 36°18' W 001°55'714.0
2017-Jun-25 16:00N 36°19' W 001°47'714.5
2017-Jun-25 15:30N 36°20' W 001°38'714.4
2017-Jun-25 15:00N 36°22' W 001°29'714.2
2017-Jun-25 14:30N 36°23' W 001°21'1814.7
2017-Jun-25 13:16N 36°26' W 000°58'414.9
2017-Jun-25 13:00N 36°27' W 000°54'815.0
2017-Jun-25 12:30N 36°28' W 000°44'714.8
2017-Jun-25 12:00N 36°29' W 000°35'714.8
2017-Jun-25 11:30N 36°31' W 000°27'714.4
2017-Jun-25 11:00N 36°32' W 000°18'714.2
2017-Jun-25 10:30N 36°33' W 000°09'714.1
2017-Jun-25 10:00N 36°35' W 000°00'714.2
2017-Jun-25 09:30N 36°36' E 000°08'714.0
2017-Jun-25 09:00N 36°37' E 000°17'713.9
2017-Jun-25 08:30N 36°38' E 000°25'713.9
2017-Jun-25 08:00N 36°39' E 000°34'714.4
2017-Jun-25 07:30N 36°41' E 000°43'714.6
2017-Jun-25 07:00N 36°42' E 000°52'714.7
2017-Jun-25 06:30N 36°42' E 001°01'714.5
2017-Jun-25 06:00N 36°44' E 001°10'714.3
2017-Jun-25 05:30N 36°45' E 001°19'714.3
2017-Jun-25 05:00N 36°46' E 001°27'714.6
2017-Jun-25 04:30N 36°48' E 001°36'714.6
2017-Jun-25 04:00N 36°49' E 001°45'714.5
2017-Jun-25 03:30N 36°51' E 001°54'714.4
2017-Jun-25 03:00N 36°52' E 002°03'714.3
2017-Jun-25 02:30N 36°53' E 002°12'714.2
2017-Jun-25 02:00N 36°55' E 002°20'714.2
2017-Jun-25 01:30N 36°56' E 002°29'714.2
2017-Jun-25 01:00N 36°57' E 002°38'714.2
2017-Jun-25 00:30N 36°58' E 002°47'714.2
2017-Jun-25 00:00N 36°60' E 002°55'714.3
2017-Jun-24 23:30N 37°01' E 003°04'714.1
2017-Jun-24 23:00N 37°02' E 003°13'714.0
2017-Jun-24 22:30N 37°03' E 003°21'714.1
2017-Jun-24 22:00N 37°05' E 003°30'714.0
2017-Jun-24 21:29N 37°06' E 003°39'713.8
2017-Jun-24 21:00N 37°07' E 003°47'713.7
2017-Jun-24 20:30N 37°08' E 003°56'713.8
2017-Jun-24 20:00N 37°08' E 004°04'713.9
2017-Jun-24 19:30N 37°09' E 004°13'714.1
2017-Jun-24 19:00N 37°09' E 004°22'714.0
2017-Jun-24 18:30N 37°09' E 004°31'714.1
2017-Jun-24 18:00N 37°09' E 004°40'714.2
2017-Jun-24 17:30N 37°10' E 004°49'714.2
2017-Jun-24 17:00N 37°10' E 004°57'714.2
2017-Jun-24 16:31N 37°10' E 005°06'714.1
2017-Jun-24 16:00N 37°10' E 005°15'714.1
2017-Jun-24 15:31N 37°10' E 005°24'714.1
2017-Jun-24 15:00N 37°11' E 005°33'1414.0
2017-Jun-24 14:00N 37°12' E 005°50'714.1
2017-Jun-24 13:30N 37°12' E 005°59'714.1
2017-Jun-24 13:00N 37°12' E 006°08'714.3
2017-Jun-24 12:30N 37°13' E 006°17'714.2
2017-Jun-24 12:00N 37°13' E 006°26'713.4
2017-Jun-24 11:30N 37°11' E 006°34'1113.7
2017-Jun-24 10:40N 37°06' E 006°47'313.6
2017-Jun-24 10:25N 37°04' E 006°50'612.8
2017-Jun-24 09:57N 36°59' E 006°54'  
2017-Jun-22 00:58N 37°06' E 006°57'0 0.4
2017-Jun-22 00:30N 37°06' E 006°57'0 0.3
2017-Jun-22 00:00N 37°06' E 006°57'0 0.3
2017-Jun-21 23:30N 37°06' E 006°57'1 1.4
2017-Jun-21 22:48N 37°05' E 006°56'4 0.2
2017-Jun-21 03:35N 37°05' E 006°52'0 1.0
2017-Jun-21 03:30N 37°05' E 006°52'0 0.9
2017-Jun-21 03:00N 37°06' E 006°52'1 0.8
2017-Jun-21 02:19N 37°06' E 006°53'0 0.7
2017-Jun-21 02:00N 37°06' E 006°53'0 0.6
2017-Jun-21 01:30N 37°06' E 006°53'2 3.5
2017-Jun-21 01:00N 37°04' E 006°54'4 2.3
2017-Jun-20 23:23N 37°02' E 006°57'6 3.9
2017-Jun-20 21:50N 37°01' E 007°05'4 1.0
2017-Jun-20 17:37N 37°01' E 006°59'1 5.1
2017-Jun-20 17:21N 37°01' E 006°58'3 5.1
2017-Jun-20 16:44N 37°02' E 006°54'1 5.2
2017-Jun-20 16:30N 37°02' E 006°52'3 5.2
2017-Jun-20 15:59N 37°02' E 006°49'3 4.2
2017-Jun-20 15:21N 37°02' E 006°46'1 2.0
2017-Jun-20 14:54N 37°02' E 006°47'3 2.0
2017-Jun-20 13:28N 37°02' E 006°50'1 1.9
2017-Jun-20 13:00N 37°02' E 006°51'1 1.8
2017-Jun-20 12:30N 37°02' E 006°53'1 1.8
2017-Jun-20 12:00N 37°02' E 006°54'1 1.8
2017-Jun-20 11:30N 37°02' E 006°55'1 1.7
2017-Jun-20 10:45N 37°02' E 006°56'1 1.5
2017-Jun-20 10:20N 37°02' E 006°57'1 1.3
2017-Jun-20 09:56N 37°02' E 006°58'1 0.8
2017-Jun-20 08:14N 37°03' E 006°57'2 7.2
2017-Jun-20 07:56N 37°01' E 006°56'  
Track history (hours):
 
Tides and Currents Weather Stations Pressure Air Temp Water Temp Dewpoint Dewpoint Depression Visibility Wind Speed Wind Dir Waves Ship Positions

Cheikh El Mokrani

Last reported at 2017-Jun-30 00:16 UTC. Time now 2017-Jul-25 18:43 UTC.
Position N 39°30' W 009°57'.
Warning: this ship's position is 25 days out of date.

Length 220 m; draft 7.9 m.

Type: Ship (hazmat cat D). MMSI: 309979000.

Date/timePositionNaut miles runAvg speedWind from/ knotsBaromVisibWave heightAir tempDewpointWater temp
2017-Jun-30 00:16N 39°30' W 009°57'4 5.4
2017-Jun-29 23:31N 39°25' W 009°57'0 6.0
2017-Jun-29 23:29N 39°25' W 009°57'3 5.6
2017-Jun-29 23:00N 39°23' W 009°57'3 6.0
2017-Jun-29 22:30N 39°20' W 009°57'3 5.8
2017-Jun-29 22:00N 39°17' W 009°57'3 5.9
2017-Jun-29 21:30N 39°14' W 009°57'3 6.5
2017-Jun-29 21:00N 39°11' W 009°57'4 7.0
2017-Jun-29 20:30N 39°07' W 009°57'4 7.0
2017-Jun-29 20:00N 39°03' W 009°57'4 7.1
2017-Jun-29 19:30N 38°60' W 009°57'3 6.8
2017-Jun-29 19:00N 38°57' W 009°57'3 6.5
2017-Jun-29 18:30N 38°53' W 009°57'4 7.2
2017-Jun-29 18:00N 38°50' W 009°57'4 7.1
2017-Jun-29 17:30N 38°46' W 009°57'4 7.7
2017-Jun-29 17:00N 38°42' W 009°57'4 7.7
2017-Jun-29 16:30N 38°39' W 009°56'4 7.3
2017-Jun-29 16:00N 38°35' W 009°53'4 7.5
2017-Jun-29 15:30N 38°33' W 009°50'4 7.7
2017-Jun-29 15:00N 38°30' W 009°46'8 7.6
2017-Jun-29 14:00N 38°25' W 009°39'4 7.5
2017-Jun-29 13:30N 38°22' W 009°36'4 7.6
2017-Jun-29 13:00N 38°19' W 009°33'4 7.5
2017-Jun-29 12:30N 38°17' W 009°29'4 7.4
2017-Jun-29 12:00N 38°15' W 009°25'4 7.8
2017-Jun-29 11:30N 38°12' W 009°21'4 7.6
2017-Jun-29 11:00N 38°10' W 009°18'4 8.0
2017-Jun-29 10:30N 38°07' W 009°14'4 8.3
2017-Jun-29 10:00N 38°04' W 009°10'1 2.5
2017-Jun-29 09:30N 38°03' W 009°10'5 9.1
2017-Jun-29 09:00N 38°06' W 009°15'4 9.0
2017-Jun-29 08:30N 38°08' W 009°20'4 9.0
2017-Jun-29 08:00N 38°11' W 009°24'4 8.9
2017-Jun-29 07:30N 38°13' W 009°29'4 8.9
2017-Jun-29 07:00N 38°15' W 009°34'5 9.1
2017-Jun-29 06:30N 38°18' W 009°39'5 9.1
2017-Jun-29 06:00N 38°20' W 009°44'5 9.2
2017-Jun-29 05:30N 38°23' W 009°49'5 9.3
2017-Jun-29 05:00N 38°25' W 009°54'5 9.2
2017-Jun-29 04:30N 38°28' W 009°58'5 9.3
2017-Jun-29 04:00N 38°30' W 010°03'5 9.8
2017-Jun-29 03:30N 38°33' W 010°09'5 9.7
2017-Jun-29 03:00N 38°38' W 010°11'5 9.6
2017-Jun-29 02:30N 38°43' W 010°12'5 9.0
2017-Jun-29 02:00N 38°47' W 010°12'4 8.4
2017-Jun-29 01:30N 38°51' W 010°12'4 8.3
2017-Jun-29 01:00N 38°55' W 010°10'4 8.7
2017-Jun-29 00:30N 38°59' W 010°09'5 9.5
2017-Jun-29 00:00N 39°04' W 010°08'4 7.4
2017-Jun-28 23:30N 39°07' W 010°05'3 6.7
2017-Jun-28 23:00N 39°06' W 010°01'3 7.0
2017-Jun-28 22:30N 39°05' W 009°57'3 7.0
2017-Jun-28 22:00N 39°01' W 009°57'4 7.5
2017-Jun-28 21:30N 38°57' W 009°57'4 7.5
2017-Jun-28 21:00N 38°54' W 009°57'4 7.4
2017-Jun-28 20:30N 38°50' W 009°57'4 7.4
2017-Jun-28 20:00N 38°46' W 009°57'4 7.5
2017-Jun-28 19:30N 38°43' W 009°57'4 8.1
2017-Jun-28 19:01N 38°39' W 009°56'4 8.2
2017-Jun-28 18:30N 38°35' W 009°53'4 8.6
2017-Jun-28 18:00N 38°32' W 009°49'4 8.8
2017-Jun-28 17:30N 38°29' W 009°45'4 8.5
2017-Jun-28 17:00N 38°26' W 009°41'4 8.4
2017-Jun-28 16:30N 38°24' W 009°37'4 8.6
2017-Jun-28 16:00N 38°21' W 009°33'4 8.8
2017-Jun-28 15:30N 38°18' W 009°28'5 9.0
2017-Jun-28 15:00N 38°15' W 009°24'9 9.1
2017-Jun-28 14:00N 38°09' W 009°15'4 7.9
2017-Jun-28 13:30N 38°07' W 009°11'5 9.3
2017-Jun-28 13:00N 38°04' W 009°07'510.4
2017-Jun-28 12:30N 38°00' W 009°02'510.9
2017-Jun-28 12:00N 37°57' W 008°57'4 6.6
2017-Jun-28 11:28N 37°57' W 008°52'1 1.4
2017-Jun-28 10:59N 37°56' W 008°51'0 0.0
2017-Jun-28 10:29N 37°56' W 008°51'0 0.0
2017-Jun-28 09:59N 37°56' W 008°51'0 0.0
2017-Jun-28 09:29N 37°56' W 008°51'0 0.0
2017-Jun-28 08:59N 37°56' W 008°51'0 0.0
2017-Jun-28 08:26N 37°56' W 008°51'0 0.0
2017-Jun-28 07:59N 37°56' W 008°51'0 0.0
2017-Jun-28 07:29N 37°56' W 008°51'0 0.0
2017-Jun-28 06:59N 37°56' W 008°51'0 0.0
2017-Jun-28 06:29N 37°56' W 008°51'0 0.0
2017-Jun-28 05:59N 37°56' W 008°51'0 0.0
2017-Jun-28 05:29N 37°56' W 008°51'0 0.0
2017-Jun-28 04:59N 37°56' W 008°51'0 0.0
2017-Jun-28 04:29N 37°56' W 008°51'0 0.0
2017-Jun-28 03:59N 37°56' W 008°51'0 0.0
2017-Jun-28 03:29N 37°56' W 008°51'0 0.0
2017-Jun-28 02:59N 37°56' W 008°51'0 0.0
2017-Jun-28 02:29N 37°56' W 008°51'0 0.0
2017-Jun-28 01:59N 37°56' W 008°51'0 0.0
2017-Jun-28 01:29N 37°56' W 008°51'0 0.0
2017-Jun-28 00:59N 37°56' W 008°51'0 0.0
2017-Jun-28 00:26N 37°56' W 008°51'0 0.0
2017-Jun-27 23:59N 37°56' W 008°51'0 0.0
2017-Jun-27 23:29N 37°56' W 008°51'0 0.0
2017-Jun-27 22:59N 37°56' W 008°51'0 0.0
2017-Jun-27 22:29N 37°56' W 008°51'0 0.0
2017-Jun-27 21:59N 37°56' W 008°51'0 0.0
2017-Jun-27 21:29N 37°56' W 008°51'0 0.0
2017-Jun-27 20:59N 37°56' W 008°51'0 0.0
2017-Jun-27 20:29N 37°56' W 008°51'0 0.0
2017-Jun-27 19:59N 37°56' W 008°51'0 0.0
2017-Jun-27 19:29N 37°56' W 008°51'0 0.0
2017-Jun-27 18:59N 37°56' W 008°51'0 0.0
2017-Jun-27 18:29N 37°56' W 008°51'0 0.0
2017-Jun-27 17:59N 37°56' W 008°51'0 0.0
2017-Jun-27 17:29N 37°56' W 008°51'0 0.0
2017-Jun-27 16:59N 37°56' W 008°51'0 0.0
2017-Jun-27 16:29N 37°56' W 008°51'0 0.0
2017-Jun-27 15:59N 37°56' W 008°51'0 0.0
2017-Jun-27 15:29N 37°56' W 008°51'0 0.0
2017-Jun-27 14:59N 37°56' W 008°51'0 0.0
2017-Jun-27 14:29N 37°56' W 008°51'0 0.0
2017-Jun-27 13:29N 37°56' W 008°51'0 0.0
2017-Jun-27 12:59N 37°56' W 008°51'0 0.0
2017-Jun-27 12:29N 37°56' W 008°51'0 0.0
2017-Jun-27 11:59N 37°56' W 008°51'0 0.0
2017-Jun-27 11:29N 37°56' W 008°51'0 0.0
2017-Jun-27 10:59N 37°56' W 008°51'0 0.2
2017-Jun-27 10:30N 37°56' W 008°52'1 1.6
2017-Jun-27 10:00N 37°56' W 008°52'2 4.0
2017-Jun-27 09:30N 37°54' W 008°53'1 1.3
2017-Jun-27 09:00N 37°53' W 008°54'2 3.9
2017-Jun-27 08:30N 37°52' W 008°55'4 8.2
2017-Jun-27 08:00N 37°48' W 008°57'4 8.6
2017-Jun-27 07:30N 37°44' W 008°60'4 8.1
2017-Jun-27 07:00N 37°41' W 009°02'1 1.5
2017-Jun-27 06:30N 37°40' W 009°02'0 0.8
2017-Jun-27 06:00N 37°40' W 009°03'0 0.6
2017-Jun-27 05:30N 37°40' W 009°03'4 8.8
2017-Jun-27 05:00N 37°36' W 009°05'713.6
2017-Jun-27 04:30N 37°30' W 009°09'913.1
2017-Jun-27 03:51N 37°22' W 009°13'3611.8
2017-Jun-27 00:47N 36°46' W 009°18'613.0
2017-Jun-27 00:21N 36°42' W 009°14'612.7
2017-Jun-26 23:55N 36°40' W 009°08'612.5
2017-Jun-26 23:28N 36°38' W 009°01'612.5
2017-Jun-26 22:59N 36°36' W 008°54'812.6
2017-Jun-26 22:23N 36°33' W 008°45'812.3
2017-Jun-26 21:46N 36°31' W 008°36'312.1
2017-Jun-26 21:29N 36°29' W 008°32'2012.3
2017-Jun-26 19:54N 36°23' W 008°09'612.5
2017-Jun-26 19:23N 36°21' W 008°01'512.7
2017-Jun-26 18:59N 36°20' W 007°55'613.0
2017-Jun-26 18:30N 36°18' W 007°48'713.4
2017-Jun-26 18:00N 36°16' W 007°40'713.4
2017-Jun-26 17:30N 36°15' W 007°32'713.5
2017-Jun-26 17:00N 36°13' W 007°24'714.2
2017-Jun-26 16:30N 36°12' W 007°15'1114.8
2017-Jun-26 15:46N 36°10' W 007°02'2310.2
2017-Jun-26 13:30N 36°14' W 007°30'4 8.2
2017-Jun-26 13:00N 36°13' W 007°25'1414.0
2017-Jun-26 12:02N 36°09' W 007°09'313.7
2017-Jun-26 11:50N 36°09' W 007°06'2613.7
2017-Jun-26 09:56N 36°02' W 006°35'4811.9
2017-Jun-26 05:55N 35°58' W 005°36'511.6
2017-Jun-26 05:30N 35°59' W 005°30'611.2
2017-Jun-26 05:00N 36°01' W 005°24'612.6
2017-Jun-26 04:30N 36°03' W 005°16'612.4
2017-Jun-26 04:00N 36°03' W 005°09'612.7
2017-Jun-26 03:30N 36°04' W 005°01'10913.6
2017-Jun-25 19:28N 36°11' W 002°46'714.5
2017-Jun-25 19:00N 36°12' W 002°38'714.6
2017-Jun-25 18:30N 36°13' W 002°29'714.0
2017-Jun-25 18:00N 36°14' W 002°20'713.6
2017-Jun-25 17:30N 36°14' W 002°12'813.4
2017-Jun-25 16:55N 36°16' W 002°02'613.7
2017-Jun-25 16:30N 36°18' W 001°55'714.0
2017-Jun-25 16:00N 36°19' W 001°47'714.5
2017-Jun-25 15:30N 36°20' W 001°38'714.4
2017-Jun-25 15:00N 36°22' W 001°29'714.2
2017-Jun-25 14:30N 36°23' W 001°21'1814.7
2017-Jun-25 13:16N 36°26' W 000°58'414.9
2017-Jun-25 13:00N 36°27' W 000°54'815.0
2017-Jun-25 12:30N 36°28' W 000°44'714.8
2017-Jun-25 12:00N 36°29' W 000°35'714.8
2017-Jun-25 11:30N 36°31' W 000°27'714.4
2017-Jun-25 11:00N 36°32' W 000°18'714.2
2017-Jun-25 10:30N 36°33' W 000°09'714.1
2017-Jun-25 10:00N 36°35' W 000°00'714.2
2017-Jun-25 09:30N 36°36' E 000°08'714.0
2017-Jun-25 09:00N 36°37' E 000°17'713.9
2017-Jun-25 08:30N 36°38' E 000°25'713.9
2017-Jun-25 08:00N 36°39' E 000°34'714.4
2017-Jun-25 07:30N 36°41' E 000°43'714.6
2017-Jun-25 07:00N 36°42' E 000°52'714.7
2017-Jun-25 06:30N 36°42' E 001°01'714.5
2017-Jun-25 06:00N 36°44' E 001°10'714.3
2017-Jun-25 05:30N 36°45' E 001°19'714.3
2017-Jun-25 05:00N 36°46' E 001°27'714.6
2017-Jun-25 04:30N 36°48' E 001°36'714.6
2017-Jun-25 04:00N 36°49' E 001°45'714.5
2017-Jun-25 03:30N 36°51' E 001°54'714.4
2017-Jun-25 03:00N 36°52' E 002°03'714.3
2017-Jun-25 02:30N 36°53' E 002°12'714.2
2017-Jun-25 02:00N 36°55' E 002°20'714.2
2017-Jun-25 01:30N 36°56' E 002°29'714.2
2017-Jun-25 01:00N 36°57' E 002°38'714.2
2017-Jun-25 00:30N 36°58' E 002°47'714.2
2017-Jun-25 00:00N 36°60' E 002°55'714.3
2017-Jun-24 23:30N 37°01' E 003°04'714.1
2017-Jun-24 23:00N 37°02' E 003°13'714.0
2017-Jun-24 22:30N 37°03' E 003°21'714.1
2017-Jun-24 22:00N 37°05' E 003°30'714.0
2017-Jun-24 21:29N 37°06' E 003°39'713.8
2017-Jun-24 21:00N 37°07' E 003°47'713.7
2017-Jun-24 20:30N 37°08' E 003°56'713.8
2017-Jun-24 20:00N 37°08' E 004°04'713.9
2017-Jun-24 19:30N 37°09' E 004°13'714.1
2017-Jun-24 19:00N 37°09' E 004°22'714.0
2017-Jun-24 18:30N 37°09' E 004°31'714.1
2017-Jun-24 18:00N 37°09' E 004°40'714.2
2017-Jun-24 17:30N 37°10' E 004°49'714.2
2017-Jun-24 17:00N 37°10' E 004°57'714.2
2017-Jun-24 16:31N 37°10' E 005°06'714.1
2017-Jun-24 16:00N 37°10' E 005°15'714.1
2017-Jun-24 15:31N 37°10' E 005°24'714.1
2017-Jun-24 15:00N 37°11' E 005°33'1414.0
2017-Jun-24 14:00N 37°12' E 005°50'714.1
2017-Jun-24 13:30N 37°12' E 005°59'714.1
2017-Jun-24 13:00N 37°12' E 006°08'714.3
2017-Jun-24 12:30N 37°13' E 006°17'714.2
2017-Jun-24 12:00N 37°13' E 006°26'713.4
2017-Jun-24 11:30N 37°11' E 006°34'1113.7
2017-Jun-24 10:40N 37°06' E 006°47'313.6
2017-Jun-24 10:25N 37°04' E 006°50'612.8
2017-Jun-24 09:57N 36°59' E 006°54'  
2017-Jun-22 00:58N 37°06' E 006°57'0 0.4
2017-Jun-22 00:30N 37°06' E 006°57'0 0.3
2017-Jun-22 00:00N 37°06' E 006°57'0 0.3
2017-Jun-21 23:30N 37°06' E 006°57'1 1.4
2017-Jun-21 22:48N 37°05' E 006°56'4 0.2
2017-Jun-21 03:35N 37°05' E 006°52'0 1.0
2017-Jun-21 03:30N 37°05' E 006°52'0 0.9
2017-Jun-21 03:00N 37°06' E 006°52'1 0.8
2017-Jun-21 02:19N 37°06' E 006°53'0 0.7
2017-Jun-21 02:00N 37°06' E 006°53'0 0.6
2017-Jun-21 01:30N 37°06' E 006°53'2 3.5
2017-Jun-21 01:00N 37°04' E 006°54'4 2.3
2017-Jun-20 23:23N 37°02' E 006°57'6 3.9
2017-Jun-20 21:50N 37°01' E 007°05'4 1.0
2017-Jun-20 17:37N 37°01' E 006°59'1 5.1
2017-Jun-20 17:21N 37°01' E 006°58'3 5.1
2017-Jun-20 16:44N 37°02' E 006°54'1 5.2
2017-Jun-20 16:30N 37°02' E 006°52'3 5.2
2017-Jun-20 15:59N 37°02' E 006°49'3 4.2
2017-Jun-20 15:21N 37°02' E 006°46'1 2.0
2017-Jun-20 14:54N 37°02' E 006°47'3 2.0
2017-Jun-20 13:28N 37°02' E 006°50'1 1.9
2017-Jun-20 13:00N 37°02' E 006°51'1 1.8
2017-Jun-20 12:30N 37°02' E 006°53'1 1.8
2017-Jun-20 12:00N 37°02' E 006°54'1 1.8
2017-Jun-20 11:30N 37°02' E 006°55'1 1.7
2017-Jun-20 10:45N 37°02' E 006°56'1 1.5
2017-Jun-20 10:20N 37°02' E 006°57'1 1.3
2017-Jun-20 09:56N 37°02' E 006°58'1 0.8
2017-Jun-20 08:14N 37°03' E 006°57'2 7.2
2017-Jun-20 07:56N 37°01' E 006°56'  

Dump ship's entire track history